Time;durP1;ratioP1;P1;durP2;ratioP2;P2;SDS_P1;SDS_P2;PMS_P1;PMS_P2;Temp;Humidity;BMP_temperature;BMP_pressure;BME280_temperature;BME280_humidity;BME280_pressure;Samples;Min_cycle;Max_cycle;Signal;HPM_P1;HPM_P2
2023/06/09 00:00:28;;;;;;;0.50;0.50;;;;;;;14.26;83.46;96550.81;29395;305;63005;-61
2023/06/09 00:00:59;;;;;;;0.40;0.40;;;;;;;14.24;83.32;96553.88;29395;207;63009;-62
2023/06/09 00:01:35;;;;;;;0.40;0.40;;;;;;;14.23;83.52;96551.47;29395;232;63005;-49
2023/06/09 00:02:07;;;;;;;0.40;0.40;;;;;;;14.20;83.55;96546.69;29395;216;63009;-49
2023/06/09 00:02:39;;;;;;;0.40;0.40;;;;;;;14.21;83.49;96551.00;29395;267;63004;-60
2023/06/09 00:03:10;;;;;;;0.40;0.40;;;;;;;14.20;83.57;96557.59;29395;221;63009;-60
2023/06/09 00:03:41;;;;;;;0.40;0.40;;;;;;;14.19;83.79;96550.53;29395;202;63004;-61
2023/06/09 00:04:13;;;;;;;0.40;0.40;;;;;;;14.20;83.57;96552.94;29394;262;64013;-62
2023/06/09 00:04:45;;;;;;;0.40;0.40;;;;;;;14.20;83.53;96547.50;29395;227;63004;-60
2023/06/09 00:05:18;;;;;;;0.40;0.40;;;;;;;14.19;83.90;96548.63;29395;249;63009;-61
2023/06/09 00:05:49;;;;;;;0.50;0.50;;;;;;;14.20;83.87;96554.88;29395;245;63005;-60
2023/06/09 00:06:22;;;;;;;0.50;0.50;;;;;;;14.21;83.72;96551.00;29395;299;63009;-50
2023/06/09 00:06:54;;;;;;;0.50;0.50;;;;;;;14.20;83.71;96555.69;29395;196;63005;-60
2023/06/09 00:07:27;;;;;;;0.50;0.50;;;;;;;14.21;83.75;96556.44;29395;237;63009;-49
2023/06/09 00:07:59;;;;;;;0.50;0.50;;;;;;;14.19;83.62;96550.53;29394;197;64009;-61
2023/06/09 00:08:31;;;;;;;0.50;0.50;;;;;;;14.20;83.46;96552.16;29395;217;63009;-60
2023/06/09 00:09:04;;;;;;;0.50;0.50;;;;;;;14.20;83.37;96558.41;29395;197;63007;-49
2023/06/09 00:09:35;;;;;;;0.50;0.50;;;;;;;14.19;83.39;96553.28;29395;232;63009;-61
2023/06/09 00:10:07;;;;;;;0.40;0.40;;;;;;;14.17;83.24;96553.59;29395;229;63004;-60
2023/06/09 00:10:39;;;;;;;0.50;0.50;;;;;;;14.17;83.00;96558.25;29395;218;63009;-61
2023/06/09 00:11:10;;;;;;;0.50;0.50;;;;;;;14.17;83.08;96555.53;29395;223;63004;-50
2023/06/09 00:11:42;;;;;;;0.50;0.50;;;;;;;14.17;83.36;96559.06;29395;220;63009;-60
2023/06/09 00:12:18;;;;;;;0.40;0.40;;;;;;;14.16;83.29;96554.72;29395;252;63004;-62
2023/06/09 00:12:50;;;;;;;0.40;0.40;;;;;;;14.16;83.08;96552.00;29394;224;64014;-50
2023/06/09 00:13:21;;;;;;;0.47;0.47;;;;;;;14.16;82.94;96557.44;29395;232;63011;-49
2023/06/09 00:13:53;;;;;;;0.40;0.40;;;;;;;14.16;83.05;96556.66;29395;230;63009;-62
2023/06/09 00:14:25;;;;;;;0.40;0.40;;;;;;;14.15;82.98;96553.12;29395;237;63005;-59
2023/06/09 00:14:58;;;;;;;0.40;0.40;;;;;;;14.16;83.39;96551.19;29395;202;63009;-49
2023/06/09 00:15:30;;;;;;;0.40;0.40;;;;;;;14.17;83.38;96553.59;29395;216;63005;-62
2023/06/09 00:16:02;;;;;;;0.40;0.40;;;;;;;14.17;83.02;96550.06;29395;208;63009;-62
2023/06/09 00:16:33;;;;;;;0.40;0.40;;;;;;;14.16;83.32;96553.91;29394;214;64009;-50
2023/06/09 00:17:09;;;;;;;0.40;0.40;;;;;;;14.15;83.23;96555.84;29395;213;63009;-50
2023/06/09 00:17:41;;;;;;;0.40;0.40;;;;;;;14.15;83.07;96555.84;29395;329;63004;-62
2023/06/09 00:18:15;;;;;;;0.50;0.50;;;;;;;14.16;83.04;96556.66;29395;373;63009;-50
2023/06/09 00:18:47;;;;;;;0.40;0.40;;;;;;;14.16;82.81;96556.66;29394;253;64009;-60
2023/06/09 00:19:22;;;;;;;0.50;0.50;;;;;;;14.15;83.04;96557.78;29395;204;63008;-50
2023/06/09 00:20:03;;;;;;;0.50;0.50;;;;;;;14.13;82.72;96557.28;29395;202;63004;-49
2023/06/09 00:20:35;;;;;;;0.50;0.50;;;;;;;14.09;82.96;96560.66;29417;236;63009;-50
2023/06/09 00:21:07;;;;;;;0.50;0.50;;;;;;;14.11;83.04;96559.53;29394;206;64014;-50
2023/06/09 00:21:44;;;;;;;0.50;0.50;;;;;;;14.09;83.20;96563.37;29395;248;63025;-50
2023/06/09 00:22:17;;;;;;;0.50;0.50;;;;;;;14.08;83.41;96559.06;29395;205;63005;-62
2023/06/09 00:22:48;;;;;;;0.50;0.50;;;;;;;14.09;83.36;96560.66;29394;354;64013;-62
2023/06/09 00:23:19;;;;;;;0.50;0.50;;;;;;;14.09;83.30;96563.37;29395;383;63005;-62
2023/06/09 00:23:55;;;;;;;0.50;0.50;;;;;;;14.09;83.38;96554.41;29395;228;63009;-60
2023/06/09 00:24:27;;;;;;;0.47;0.47;;;;;;;14.08;83.41;96556.34;29395;210;63004;-60
2023/06/09 00:25:00;;;;;;;0.50;0.50;;;;;;;14.08;83.61;96556.34;29395;316;63009;-61
2023/06/09 00:25:32;;;;;;;0.40;0.40;;;;;;;14.09;83.53;96551.69;29395;215;63004;-49
2023/06/09 00:26:04;;;;;;;0.40;0.40;;;;;;;14.08;83.40;96552.81;29395;273;63009;-62
2023/06/09 00:26:35;;;;;;;0.47;0.47;;;;;;;14.06;83.57;96553.12;29395;198;63004;-60
2023/06/09 00:27:08;;;;;;;0.50;0.50;;;;;;;14.06;83.56;96553.12;29395;219;63014;-50
2023/06/09 00:27:40;;;;;;;0.40;0.40;;;;;;;14.07;84.06;96549.28;29394;273;64008;-61
2023/06/09 00:28:12;;;;;;;1.02;1.02;;;;;;;14.06;83.80;96550.41;29395;332;63009;-61
2023/06/09 00:28:43;;;;;;;0.40;0.40;;;;;;;14.05;83.62;96546.06;29395;230;63005;-50
2023/06/09 00:29:17;;;;;;;0.50;0.50;;;;;;;14.06;83.73;96552.31;29395;213;63009;-61
2023/06/09 00:29:48;;;;;;;0.40;0.40;;;;;;;14.05;83.74;96545.25;29395;222;63005;-62
2023/06/09 00:30:22;;;;;;;0.50;0.50;;;;;;;14.03;83.98;96548.31;29395;214;63009;-60
2023/06/09 00:30:54;;;;;;;0.50;0.50;;;;;;;14.02;84.05;96546.72;29395;216;63005;-61
2023/06/09 00:31:25;;;;;;;0.40;0.40;;;;;;;14.02;83.91;96543.97;29395;230;63015;-63
2023/06/09 00:31:56;;;;;;;0.40;0.40;;;;;;;14.00;83.79;96543.50;29395;202;63016;-50
2023/06/09 00:32:28;;;;;;;0.40;0.40;;;;;;;14.00;84.08;96548.94;29395;221;63009;-61
2023/06/09 00:33:01;;;;;;;0.47;0.47;;;;;;;13.98;83.81;96551.19;29394;210;64009;-63
2023/06/09 00:33:32;;;;;;;0.40;0.40;;;;;;;13.98;84.21;96548.47;29395;244;63009;-61
2023/06/09 00:34:08;;;;;;;0.40;0.40;;;;;;;13.99;84.00;96552.81;29395;197;63004;-62
2023/06/09 00:34:39;;;;;;;0.40;0.40;;;;;;;13.98;83.73;96555.84;29394;251;64013;-61
2023/06/09 00:35:14;;;;;;;0.50;0.50;;;;;;;13.98;83.95;96556.66;29395;196;63004;-61
2023/06/09 00:35:45;;;;;;;0.47;0.47;;;;;;;13.98;84.17;96550.41;29395;203;63009;-62
2023/06/09 00:36:16;;;;;;;0.50;0.50;;;;;;;13.97;83.86;96549.59;29395;290;63005;-61
2023/06/09 00:36:48;;;;;;;0.47;0.47;;;;;;;13.97;84.55;96555.06;29395;218;63009;-62
2023/06/09 00:37:19;;;;;;;0.50;0.50;;;;;;;13.94;85.13;96552.97;29395;211;63009;-63
2023/06/09 00:37:50;;;;;;;0.40;0.40;;;;;;;13.91;85.60;96559.06;29395;202;63009;-61
2023/06/09 00:38:25;;;;;;;0.40;0.40;;;;;;;13.88;85.58;96558.91;29395;227;63005;-62
2023/06/09 00:38:56;;;;;;;0.40;0.40;;;;;;;13.86;85.16;96559.22;29394;230;64013;-50
2023/06/09 00:39:27;;;;;;;0.50;0.50;;;;;;;13.87;85.12;96560.03;29395;219;63004;-61
2023/06/09 00:40:00;;;;;;;0.40;0.40;;;;;;;13.87;85.24;96560.03;29395;215;63017;-51
2023/06/09 00:40:32;;;;;;;0.40;0.40;;;;;;;13.87;84.85;96557.28;29395;243;63004;-62
2023/06/09 00:41:03;;;;;;;0.40;0.40;;;;;;;13.87;85.03;96552.66;29394;203;64013;-51
2023/06/09 00:41:39;;;;;;;0.50;0.50;;;;;;;13.88;84.87;96561.63;29395;235;63004;-50
2023/06/09 00:42:11;;;;;;;0.40;0.40;;;;;;;13.88;85.02;96558.91;29395;260;63008;-62
2023/06/09 00:42:42;;;;;;;0.50;0.50;;;;;;;13.88;84.80;96558.91;29395;234;63004;-51
2023/06/09 00:43:14;;;;;;;0.50;0.50;;;;;;;13.87;85.00;96552.66;29395;202;63009;-62
2023/06/09 00:43:47;;;;;;;0.50;0.50;;;;;;;13.88;85.00;96556.97;29395;238;63005;-61
2023/06/09 00:44:19;;;;;;;0.50;0.50;;;;;;;13.88;85.04;96550.72;29395;303;63027;-60
2023/06/09 00:44:54;;;;;;;0.40;0.40;;;;;;;13.87;84.79;96555.37;29395;222;63005;-63
2023/06/09 00:45:25;;;;;;;0.50;0.50;;;;;;;13.86;84.90;96553.78;29395;204;63009;-61
2023/06/09 00:45:59;;;;;;;0.40;0.40;;;;;;;13.85;85.05;96562.31;29394;327;64009;-62
2023/06/09 00:46:31;;;;;;;0.40;0.40;;;;;;;13.83;85.36;96559.91;29395;202;63009;-61
2023/06/09 00:47:04;;;;;;;0.50;0.50;;;;;;;13.81;84.93;96556.69;29395;267;63016;-62
2023/06/09 00:47:42;;;;;;;0.50;0.50;;;;;;;13.79;85.30;96550.75;29395;313;63009;-60
2023/06/09 00:48:13;;;;;;;0.47;0.47;;;;;;;13.79;85.40;96556.19;29394;319;64009;-62
2023/06/09 00:48:45;;;;;;;0.40;0.40;;;;;;;13.79;85.44;96550.75;29395;205;63009;-62
2023/06/09 00:49:19;;;;;;;0.50;0.50;;;;;;;13.78;85.26;96551.88;29395;208;63004;-51
2023/06/09 00:49:51;;;;;;;0.50;0.50;;;;;;;13.79;85.53;96549.94;29395;210;63024;-60
2023/06/09 00:50:23;;;;;;;0.47;0.47;;;;;;;13.77;85.43;96550.25;29395;256;63005;-62
2023/06/09 00:50:55;;;;;;;0.50;0.50;;;;;;;13.79;85.17;96550.75;29394;247;64014;-61
2023/06/09 00:51:27;;;;;;;0.50;0.50;;;;;;;13.80;85.07;96548.81;29395;210;63015;-62
2023/06/09 00:51:59;;;;;;;0.50;0.50;;;;;;;13.78;85.15;96546.41;29395;199;63009;-50
2023/06/09 00:52:31;;;;;;;0.50;0.50;;;;;;;13.79;85.17;96547.22;29395;230;63005;-61
2023/06/09 00:53:03;;;;;;;0.40;0.40;;;;;;;13.78;85.20;96540.16;29394;199;64013;-61
2023/06/09 00:53:38;;;;;;;0.50;0.50;;;;;;;13.78;85.19;96543.69;29395;333;63005;-61
2023/06/09 00:54:10;;;;;;;0.50;0.50;;;;;;;13.78;85.40;96540.97;29395;256;63009;-61
2023/06/09 00:54:42;;;;;;;0.50;0.50;;;;;;;13.78;85.11;96546.41;29395;234;63011;-62
2023/06/09 00:55:17;;;;;;;0.40;0.40;;;;;;;13.78;85.24;96540.16;29395;216;63009;-62
2023/06/09 00:55:51;;;;;;;0.50;0.50;;;;;;;13.78;84.96;96540.16;29395;210;63004;-60
2023/06/09 00:56:23;;;;;;;0.40;0.40;;;;;;;13.78;84.77;96538.22;29394;221;64013;-51
2023/06/09 00:56:56;;;;;;;0.50;0.50;;;;;;;13.77;85.12;96536.62;29395;234;63004;-51
2023/06/09 00:57:33;;;;;;;0.50;0.50;;;;;;;13.74;85.74;96535.34;29394;241;64013;-51
2023/06/09 00:58:06;;;;;;;0.40;0.40;;;;;;;13.69;86.20;96537.44;29395;256;63005;-61
2023/06/09 00:58:37;;;;;;;0.50;0.50;;;;;;;13.68;85.88;96541.28;29395;221;63009;-60
2023/06/09 00:59:13;;;;;;;0.43;0.43;;;;;;;13.66;85.84;96536.16;29395;200;63005;-60
2023/06/09 00:59:46;;;;;;;0.40;0.40;;;;;;;13.67;85.56;96529.56;29395;222;63009;-62
2023/06/09 01:00:26;;;;;;;0.40;0.40;;;;;;;13.67;85.54;96534.22;29394;227;63997;-50
2023/06/09 01:00:59;;;;;;;0.40;0.40;;;;;;;13.68;85.67;96535.81;29417;322;63009;-61
2023/06/09 01:01:33;;;;;;;0.50;0.50;;;;;;;13.68;85.49;96538.56;29394;204;64009;-61
2023/06/09 01:02:05;;;;;;;0.50;0.50;;;;;;;13.69;85.63;96534.69;29394;211;64013;-50
2023/06/09 01:02:38;;;;;;;0.50;0.50;;;;;;;13.69;85.47;96545.59;29395;251;63004;-51
2023/06/09 01:03:10;;;;;;;0.50;0.50;;;;;;;13.70;85.63;96539.03;29395;217;63021;-61
2023/06/09 01:03:41;;;;;;;0.50;0.50;;;;;;;13.71;85.50;96543.38;29395;216;63004;-50
2023/06/09 01:04:15;;;;;;;0.40;0.40;;;;;;;13.71;85.76;96540.63;29395;215;63008;-61
2023/06/09 01:04:49;;;;;;;0.40;0.40;;;;;;;13.72;85.29;96543.03;29395;226;63010;-50
2023/06/09 01:05:21;;;;;;;0.40;0.40;;;;;;;13.73;85.15;96543.84;29395;247;63008;-61
2023/06/09 01:06:02;;;;;;;0.50;0.50;;;;;;;13.73;85.28;96539.19;29395;216;63005;-63
2023/06/09 01:07:17;;;;;;;0.50;0.50;;;;;;;13.73;85.34;96543.84;29395;230;63009;-62
2023/06/09 01:08:04;;;;;;;0.50;0.50;;;;;;;13.73;85.16;96541.91;29394;232;64009;-62
2023/06/09 01:08:50;;;;;;;0.50;0.50;;;;;;;13.72;85.17;96543.03;29395;205;63009;-60
2023/06/09 01:09:42;;;;;;;0.50;0.50;;;;;;;13.72;85.16;96544.97;29395;216;63004;-60
2023/06/09 01:10:24;;;;;;;0.50;0.50;;;;;;;13.68;86.21;96547.53;29396;198;63009;-60
2023/06/09 01:11:12;;;;;;;0.50;0.50;;;;;;;13.65;85.86;96552.81;29396;232;63009;-50
2023/06/09 01:12:19;;;;;;;0.50;0.50;;;;;;;13.64;85.98;96545.75;29396;216;63008;-51
2023/06/09 01:13:42;;;;;;;0.50;0.50;;;;;;;13.65;86.22;96550.09;29395;206;64009;-61
2023/06/09 01:14:29;;;;;;;0.50;0.50;;;;;;;13.65;86.14;96548.16;29418;207;63009;-62
2023/06/09 01:15:17;;;;;;;0.50;0.50;;;;;;;13.65;85.82;96550.09;29396;339;63005;-61
2023/06/09 01:15:55;;;;;;;0.50;0.50;;;;;;;13.64;86.09;96545.75;29396;238;63016;-61
2023/06/09 01:16:52;;;;;;;0.50;0.50;;;;;;;13.64;86.00;96545.75;29396;242;63011;-51
2023/06/09 01:17:28;;;;;;;0.50;0.50;;;;;;;13.62;86.22;96531.66;29396;306;63016;-51
2023/06/09 01:18:03;;;;;;;0.50;0.50;;;;;;;13.61;86.10;96546.41;29395;205;64009;-61
2023/06/09 01:18:36;;;;;;;0.50;0.50;;;;;;;13.61;86.23;96540.94;29396;237;63009;-61
2023/06/09 01:19:20;;;;;;;0.50;0.50;;;;;;;13.61;86.19;96535.50;29396;222;63004;-62
2023/06/09 01:19:57;;;;;;;0.50;0.50;;;;;;;13.59;86.32;96532.28;29396;431;63009;-60
2023/06/09 01:20:56;;;;;;;0.50;0.50;;;;;;;13.59;86.23;96537.75;29396;229;63005;-61
2023/06/09 01:21:44;;;;;;;0.50;0.50;;;;;;;13.59;86.27;96537.75;29396;258;63009;-50
2023/06/09 01:23:08;;;;;;;0.50;0.50;;;;;;;13.57;86.35;96542.72;29396;209;63005;-50
2023/06/09 01:24:23;;;;;;;0.50;0.50;;;;;;;13.48;88.32;96539.19;29395;239;64013;-62
2023/06/09 01:25:25;;;;;;;0.50;0.50;;;;;;;13.41;88.19;96547.84;29396;208;63004;-63
2023/06/09 01:25:59;;;;;;;0.50;0.50;;;;;;;13.41;88.22;96554.09;29378;213;125009;-50
2023/06/09 01:26:32;;;;;;;0.50;0.50;;;;;;;13.41;88.09;96545.91;29396;238;63004;-62
2023/06/09 01:27:07;;;;;;;0.50;0.50;;;;;;;13.43;87.94;96550.25;29396;265;63008;-61
2023/06/09 01:27:44;;;;;;;0.50;0.50;;;;;;;13.45;87.56;96553.47;29396;260;63011;-50
2023/06/09 01:28:20;;;;;;;0.50;0.50;;;;;;;13.45;87.73;96556.19;29396;203;63009;-51
2023/06/09 01:28:53;;;;;;;0.50;0.50;;;;;;;13.45;87.79;96554.25;29395;203;64002;-61
2023/06/09 01:29:27;;;;;;;0.50;0.50;;;;;;;13.46;87.67;96552.34;29395;196;64003;-62
2023/06/09 01:29:59;;;;;;;0.50;0.50;;;;;;;13.45;87.71;96548.00;29396;244;63005;-62
2023/06/09 01:30:33;;;;;;;0.50;0.50;;;;;;;13.46;87.71;96549.63;29396;399;63009;-51
2023/06/09 01:31:05;;;;;;;0.50;0.50;;;;;;;13.45;87.60;96548.00;29396;203;63005;-50
2023/06/09 01:31:38;;;;;;;0.50;0.50;;;;;;;13.44;88.09;96546.41;29396;220;63009;-62
2023/06/09 01:32:16;;;;;;;0.50;0.50;;;;;;;13.43;87.71;96550.25;29396;224;63004;-50
2023/06/09 01:32:49;;;;;;;0.50;0.50;;;;;;;13.44;87.83;96551.84;29395;277;64013;-60
2023/06/09 01:33:25;;;;;;;0.50;0.50;;;;;;;13.44;87.98;96546.41;29396;202;63004;-60
2023/06/09 01:33:59;;;;;;;0.50;0.50;;;;;;;13.43;88.21;96548.34;29396;267;63009;-62
2023/06/09 01:34:31;;;;;;;0.50;0.50;;;;;;;13.43;87.86;96544.81;29395;259;64008;-60
2023/06/09 01:35:04;;;;;;;0.50;0.50;;;;;;;13.43;88.38;96544.81;29396;225;63005;-50
2023/06/09 01:35:37;;;;;;;0.50;0.50;;;;;;;13.43;88.11;96544.81;29396;207;63005;-60
2023/06/09 01:36:09;;;;;;;0.50;0.50;;;;;;;13.43;88.25;96539.34;29396;247;63009;-49
2023/06/09 01:36:44;;;;;;;0.50;0.50;;;;;;;13.44;88.21;96546.41;29395;214;64009;-61
2023/06/09 01:37:15;;;;;;;0.50;0.50;;;;;;;13.43;88.03;96550.25;29396;208;63009;-60
2023/06/09 01:37:47;;;;;;;0.50;0.50;;;;;;;13.43;88.11;96544.81;29396;256;63000;-64
2023/06/09 01:38:20;;;;;;;0.50;0.50;;;;;;;13.43;88.16;96548.34;29396;268;63009;-60
2023/06/09 01:38:52;;;;;;;0.50;0.50;;;;;;;13.43;87.96;96544.81;29396;274;63014;-61
2023/06/09 01:39:24;;;;;;;0.50;0.50;;;;;;;13.40;87.74;96544.31;29396;239;63009;-61
2023/06/09 01:39:56;;;;;;;0.50;0.50;;;;;;;13.41;87.72;96543.19;29396;294;63004;-49
2023/06/09 01:40:29;;;;;;;0.50;0.50;;;;;;;13.42;88.04;96544.00;29396;386;63009;-50
2023/06/09 01:41:01;;;;;;;0.50;0.50;;;;;;;13.42;87.67;96544.00;29396;236;63004;-60
2023/06/09 01:41:32;;;;;;;0.50;0.50;;;;;;;13.41;87.91;96548.66;29395;204;64013;-50
2023/06/09 01:42:06;;;;;;;0.50;0.50;;;;;;;13.41;87.69;96536.94;29396;197;63004;-50
2023/06/09 01:42:37;;;;;;;0.40;0.40;;;;;;;13.41;87.75;96543.19;29395;233;64014;-61
2023/06/09 01:43:09;;;;;;;0.50;0.50;;;;;;;13.40;87.86;96541.59;29396;237;63016;-61
2023/06/09 01:43:40;;;;;;;0.43;0.43;;;;;;;13.39;87.95;96545.44;29395;245;64014;-49
2023/06/09 01:44:12;;;;;;;0.50;0.50;;;;;;;13.40;87.84;96535.34;29396;232;63005;-62
2023/06/09 01:44:43;;;;;;;0.50;0.50;;;;;;;13.40;87.87;96541.59;29396;214;63009;-50
2023/06/09 01:45:16;;;;;;;0.50;0.50;;;;;;;13.40;88.04;96538.88;29396;246;63005;-50
2023/06/09 01:45:48;;;;;;;0.50;0.50;;;;;;;13.35;88.28;96533.56;29396;234;63009;-50
2023/06/09 01:46:22;;;;;;;0.50;0.50;;;;;;;13.38;88.22;96535.66;29396;227;63005;-61
2023/06/09 01:46:53;;;;;;;0.50;0.50;;;;;;;13.39;88.18;96545.44;29396;241;63009;-61
2023/06/09 01:47:25;;;;;;;0.40;0.40;;;;;;;13.39;87.98;96542.72;29395;272;64009;-50
2023/06/09 01:47:56;;;;;;;0.50;0.50;;;;;;;13.39;88.11;96539.19;29396;210;63009;-51
2023/06/09 01:48:56;;;;;;;0.50;0.50;;;;;;;13.38;87.95;96543.84;29396;197;63009;-49
2023/06/09 01:50:01;;;;;;;0.50;0.50;;;;;;;13.37;88.47;96542.22;29396;232;63008;-50
2023/06/09 01:50:59;;;;;;;0.50;0.50;;;;;;;13.31;88.55;96543.50;29396;216;63005;-49
2023/06/09 01:51:52;;;;;;;0.50;0.50;;;;;;;13.29;88.81;96545.75;29395;204;64014;-61
2023/06/09 01:52:49;;;;;;;0.50;0.50;;;;;;;13.30;88.69;96538.38;29396;227;63011;-49
2023/06/09 01:53:34;;;;;;;0.50;0.50;;;;;;;13.30;88.54;96538.38;29397;231;63005;-60
2023/06/09 01:54:09;;;;;;;0.50;0.50;;;;;;;13.30;88.54;96546.53;29397;232;63009;-50
2023/06/09 01:54:49;;;;;;;0.50;0.50;;;;;;;13.30;88.64;96536.44;29397;223;63004;-61
2023/06/09 01:55:31;;;;;;;0.50;0.50;;;;;;;13.30;88.70;96536.44;29397;196;63009;-60
2023/06/09 01:56:31;;;;;;;0.50;0.50;;;;;;;13.30;88.65;96538.38;29397;222;63004;-60
2023/06/09 01:57:15;;;;;;;0.50;0.50;;;;;;;13.31;88.63;96534.53;29396;269;64013;-59
2023/06/09 01:58:01;;;;;;;0.50;0.50;;;;;;;13.30;88.58;96541.88;29397;232;63007;-62
2023/06/09 01:58:41;;;;;;;0.50;0.50;;;;;;;13.29;88.30;96540.28;29396;199;64014;-49
2023/06/09 01:59:24;;;;;;;0.50;0.50;;;;;;;13.30;88.61;96544.62;29419;199;63005;-61
2023/06/09 02:00:04;;;;;;;0.50;0.50;;;;;;;13.30;88.75;96538.38;29397;325;63009;-60
2023/06/09 02:00:37;;;;;;;0.50;0.50;;;;;;;13.30;88.70;96541.88;29397;218;63009;-49
2023/06/09 02:01:10;;;;;;;0.50;0.50;;;;;;;13.30;88.74;96536.44;29397;307;63009;-49
2023/06/09 02:01:45;;;;;;;0.47;0.47;;;;;;;13.30;88.79;96536.44;29396;271;64009;-61
2023/06/09 02:02:20;;;;;;;0.50;0.50;;;;;;;13.30;88.79;96539.16;29397;202;63009;-59
2023/06/09 02:02:54;;;;;;;0.50;0.50;;;;;;;13.30;88.75;96538.38;29396;202;64009;-59
2023/06/09 02:03:29;;;;;;;0.50;0.50;;;;;;;13.30;88.83;96531.00;29397;199;63008;-61
2023/06/09 02:04:04;;;;;;;0.50;0.50;;;;;;;13.28;88.82;96538.69;29397;202;63004;-60
2023/06/09 02:04:37;;;;;;;0.50;0.50;;;;;;;13.27;88.50;96528.91;29397;242;63004;-60
2023/06/09 02:05:10;;;;;;;0.50;0.50;;;;;;;13.29;88.86;96529.38;29397;224;63005;-50
2023/06/09 02:05:44;;;;;;;0.50;0.50;;;;;;;13.30;88.83;96535.63;29397;271;63009;-49
2023/06/09 02:06:18;;;;;;;0.50;0.50;;;;;;;13.30;88.67;96531.00;29397;230;63005;-61
2023/06/09 02:06:51;;;;;;;0.50;0.50;;;;;;;13.30;88.49;96531.00;29396;210;63014;-50
2023/06/09 02:07:23;;;;;;;0.45;0.45;;;;;;;13.31;88.78;96531.78;29395;246;64009;-60
2023/06/09 02:07:57;;;;;;;0.50;0.50;;;;;;;13.31;88.52;96521.69;29397;208;63009;-61
2023/06/09 02:08:30;;;;;;;0.50;0.50;;;;;;;13.33;88.15;96527.63;29396;255;63004;-60
2023/06/09 02:09:02;;;;;;;0.50;0.50;;;;;;;13.35;88.09;96527.31;29396;211;63009;-49
2023/06/09 02:09:34;;;;;;;0.50;0.50;;;;;;;13.36;88.17;96524.28;29395;370;64009;-62
2023/06/09 02:10:07;;;;;;;0.50;0.50;;;;;;;13.36;88.19;96529.72;29396;212;63009;-50
2023/06/09 02:10:40;;;;;;;0.50;0.50;;;;;;;13.37;87.96;96525.06;29396;219;63004;-50
2023/06/09 02:11:12;;;;;;;0.50;0.50;;;;;;;13.37;87.81;96525.06;29396;231;63025;-50
2023/06/09 02:11:51;;;;;;;0.50;0.50;;;;;;;13.37;87.97;96528.59;29396;226;63005;-60
2023/06/09 02:12:22;;;;;;;0.50;0.50;;;;;;;13.37;87.87;96528.59;29395;209;64014;-62
2023/06/09 02:12:54;;;;;;;0.45;0.45;;;;;;;13.38;87.61;96522.03;29396;234;63005;-61
2023/06/09 02:13:25;;;;;;;0.47;0.47;;;;;;;13.39;87.94;96523.63;29396;229;63009;-62
2023/06/09 02:13:57;;;;;;;0.50;0.50;;;;;;;13.40;87.52;96530.69;29397;197;63005;-60
2023/06/09 02:14:33;;;;;;;0.40;0.40;;;;;;;13.41;87.47;96520.59;29396;222;63019;-61
2023/06/09 02:15:06;;;;;;;0.40;0.40;;;;;;;13.41;87.31;96521.41;29395;215;64009;-60
2023/06/09 02:15:37;;;;;;;0.50;0.50;;;;;;;13.43;87.49;96523.00;29396;212;63009;-61
2023/06/09 02:16:08;;;;;;;0.50;0.50;;;;;;;13.44;87.66;96519.97;29396;261;63004;-61
2023/06/09 02:16:40;;;;;;;0.40;0.40;;;;;;;13.45;87.43;96520.75;29397;205;63009;-61
2023/06/09 02:17:12;;;;;;;0.50;0.50;;;;;;;13.47;87.33;96518.50;29396;214;63004;-61
2023/06/09 02:17:44;;;;;;;0.50;0.50;;;;;;;13.47;87.67;96523.97;29396;230;63015;-60
2023/06/09 02:18:21;;;;;;;0.50;0.50;;;;;;;13.46;87.66;96520.44;29396;226;63004;-62
2023/06/09 02:18:53;;;;;;;0.50;0.50;;;;;;;13.47;87.43;96524.78;29396;218;63008;-49
2023/06/09 02:19:28;;;;;;;0.50;0.50;;;;;;;13.46;87.83;96527.81;29396;214;63016;-61
2023/06/09 02:20:00;;;;;;;0.50;0.50;;;;;;;13.46;88.16;96527.81;29396;240;63024;-60
2023/06/09 02:20:32;;;;;;;0.50;0.50;;;;;;;13.43;88.26;96529.25;29395;292;64009;-61
2023/06/09 02:21:08;;;;;;;0.45;0.45;;;;;;;13.41;88.33;96531.50;29396;233;63009;-61
2023/06/09 02:21:39;;;;;;;0.40;0.40;;;;;;;13.39;88.32;96523.63;29396;260;63005;-50
2023/06/09 02:22:10;;;;;;;0.50;0.50;;;;;;;13.39;88.58;96529.09;29395;325;64009;-62
2023/06/09 02:22:45;;;;;;;0.50;0.50;;;;;;;13.36;88.72;96529.72;29396;272;63005;-61
2023/06/09 02:23:21;;;;;;;0.50;0.50;;;;;;;13.34;88.78;96526.50;29395;249;64013;-61
2023/06/09 02:23:53;;;;;;;0.50;0.50;;;;;;;13.36;89.52;96526.19;29396;256;63004;-61
2023/06/09 02:24:28;;;;;;;0.50;0.50;;;;;;;13.34;89.56;96526.50;29396;211;63026;-61
2023/06/09 02:25:01;;;;;;;0.50;0.50;;;;;;;13.30;90.75;96525.53;29396;229;63004;-62
2023/06/09 02:25:33;;;;;;;0.50;0.50;;;;;;;13.25;90.94;96528.41;29395;214;64013;-62
2023/06/09 02:26:06;;;;;;;0.50;0.50;;;;;;;13.24;90.47;96526.00;29396;247;63004;-62
2023/06/09 02:26:37;;;;;;;0.50;0.50;;;;;;;13.25;90.50;96525.69;29396;199;63008;-50
2023/06/09 02:27:09;;;;;;;0.40;0.40;;;;;;;13.27;90.37;96530.81;29396;209;63005;-62
2023/06/09 02:27:40;;;;;;;0.40;0.40;;;;;;;13.28;90.09;96526.97;29396;249;63009;-61
2023/06/09 02:28:13;;;;;;;0.50;0.50;;;;;;;13.31;89.86;96531.78;29396;197;63005;-61
2023/06/09 02:28:48;;;;;;;0.50;0.50;;;;;;;13.31;89.48;96521.69;29396;202;63009;-61
2023/06/09 02:29:19;;;;;;;0.50;0.50;;;;;;;13.33;89.35;96530.34;29396;329;63004;-49
2023/06/09 02:29:51;;;;;;;0.50;0.50;;;;;;;13.34;89.21;96533.87;29396;229;63009;-61
2023/06/09 02:30:22;;;;;;;0.50;0.50;;;;;;;13.34;88.84;96531.97;29396;257;63005;-49
2023/06/09 02:30:55;;;;;;;0.50;0.50;;;;;;;13.35;88.90;96533.56;29395;206;64013;-61
2023/06/09 02:31:27;;;;;;;0.50;0.50;;;;;;;13.35;88.79;96528.13;29395;229;64009;-61
2023/06/09 02:32:00;;;;;;;0.50;0.50;;;;;;;13.35;88.56;96527.31;29396;236;63009;-61
2023/06/09 02:32:31;;;;;;;0.50;0.50;;;;;;;13.34;88.90;96526.50;29396;219;63004;-50
2023/06/09 02:33:03;;;;;;;0.50;0.50;;;;;;;13.34;88.67;96523.00;29396;210;63009;-60
2023/06/09 02:33:34;;;;;;;0.50;0.50;;;;;;;13.33;88.87;96524.91;29396;258;63012;-63
2023/06/09 02:34:05;;;;;;;0.50;0.50;;;;;;;13.34;88.63;96520.25;29396;257;63008;-51
2023/06/09 02:34:37;;;;;;;0.50;0.50;;;;;;;13.34;88.72;96521.06;29396;209;63005;-61
2023/06/09 02:35:09;;;;;;;0.50;0.50;;;;;;;13.35;88.57;96521.88;29396;228;63009;-50
2023/06/09 02:35:40;;;;;;;0.50;0.50;;;;;;;13.36;88.73;96527.00;29396;225;63005;-60
2023/06/09 02:36:12;;;;;;;0.50;0.50;;;;;;;13.36;88.60;96521.53;29395;241;64013;-60
2023/06/09 02:36:45;;;;;;;0.50;0.50;;;;;;;13.36;88.26;96520.75;29395;212;64009;-62
2023/06/09 02:37:16;;;;;;;0.50;0.50;;;;;;;13.36;88.20;96521.53;29396;197;63009;-60
2023/06/09 02:37:48;;;;;;;0.50;0.50;;;;;;;13.36;88.54;96524.28;29396;236;63005;-50
2023/06/09 02:38:21;;;;;;;0.50;0.50;;;;;;;13.37;88.61;96520.44;29396;236;63009;-50
2023/06/09 02:38:53;;;;;;;0.45;0.45;;;;;;;13.37;88.14;96514.97;29396;213;63004;-61
2023/06/09 02:39:24;;;;;;;0.50;0.50;;;;;;;13.37;88.02;96527.81;29396;207;63009;-50
2023/06/09 02:39:57;;;;;;;0.50;0.50;;;;;;;13.38;88.00;96522.03;29396;295;63004;-61
2023/06/09 02:40:34;;;;;;;0.50;0.50;;;;;;;13.39;87.96;96523.63;29396;202;63016;-50
2023/06/09 02:41:05;;;;;;;0.50;0.50;;;;;;;13.39;87.83;96523.63;29396;197;63004;-60
2023/06/09 02:41:37;;;;;;;0.50;0.50;;;;;;;13.39;87.70;96523.63;29395;202;64013;-61
2023/06/09 02:42:09;;;;;;;0.50;0.50;;;;;;;13.40;87.83;96533.41;29396;208;63005;-50
2023/06/09 02:42:40;;;;;;;0.50;0.50;;;;;;;13.40;87.97;96529.88;29396;219;63009;-50
2023/06/09 02:43:12;;;;;;;0.50;0.50;;;;;;;13.39;88.02;96529.09;29396;226;63005;-49
2023/06/09 02:43:44;;;;;;;0.50;0.50;;;;;;;13.39;88.18;96531.81;29396;369;63009;-51
2023/06/09 02:44:16;;;;;;;0.50;0.50;;;;;;;13.37;88.31;96531.31;29396;202;63005;-50
2023/06/09 02:44:53;;;;;;;0.50;0.50;;;;;;;13.37;88.06;96534.06;29396;214;63005;-62
2023/06/09 02:45:27;;;;;;;0.50;0.50;;;;;;;13.36;88.28;96524.28;29396;239;63005;-50
2023/06/09 02:46:00;;;;;;;0.50;0.50;;;;;;;13.34;88.84;96525.72;29396;374;63009;-50
2023/06/09 02:46:33;;;;;;;0.50;0.50;;;;;;;13.32;89.06;96523.31;29395;212;64009;-50
2023/06/09 02:47:06;;;;;;;0.50;0.50;;;;;;;13.33;89.07;96524.91;29396;208;63009;-50
2023/06/09 02:47:37;;;;;;;0.50;0.50;;;;;;;13.32;89.05;96525.22;29396;273;63007;-50